sensor_id;sensor_type;location;lat;lon;timestamp;noise_LAeq;noise_LA_min;noise_LA_max;noise_LA01;noise_LA95
69670;Laerm;66535;52.370;4.832;2024-02-28T00:00:01;42.77;38.49;49.82;;
69670;Laerm;66535;52.370;4.832;2024-02-28T00:00:34;42.22;40.25;45.01;;
69670;Laerm;66535;52.370;4.832;2024-02-28T00:01:06;40.89;38.14;44.50;;
69670;Laerm;66535;52.370;4.832;2024-02-28T00:01:38;41.26;38.96;44.26;;
69670;Laerm;66535;52.370;4.832;2024-02-28T00:02:10;43.27;40.09;47.48;;
69670;Laerm;66535;52.370;4.832;2024-02-28T00:02:42;42.39;39.69;48.30;;
69670;Laerm;66535;52.370;4.832;2024-02-28T00:03:14;42.03;38.29;47.14;;
69670;Laerm;66535;52.370;4.832;2024-02-28T00:03:45;39.33;37.36;41.66;;
69670;Laerm;66535;52.370;4.832;2024-02-28T00:04:18;40.87;38.61;47.08;;
69670;Laerm;66535;52.370;4.832;2024-02-28T00:04:49;42.48;39.11;49.55;;
69670;Laerm;66535;52.370;4.832;2024-02-28T00:05:21;45.45;40.05;61.76;;
69670;Laerm;66535;52.370;4.832;2024-02-28T00:05:52;44.37;38.52;51.00;;
69670;Laerm;66535;52.370;4.832;2024-02-28T00:06:23;45.08;38.60;51.36;;
69670;Laerm;66535;52.370;4.832;2024-02-28T00:06:55;41.75;38.86;46.46;;
69670;Laerm;66535;52.370;4.832;2024-02-28T00:07:27;40.29;38.12;43.12;;
69670;Laerm;66535;52.370;4.832;2024-02-28T00:07:58;41.96;39.10;44.21;;
69670;Laerm;66535;52.370;4.832;2024-02-28T00:08:29;46.14;42.54;55.09;;
69670;Laerm;66535;52.370;4.832;2024-02-28T00:09:00;45.15;41.37;52.81;;
69670;Laerm;66535;52.370;4.832;2024-02-28T00:09:33;45.49;40.15;56.26;;
69670;Laerm;66535;52.370;4.832;2024-02-28T00:10:05;43.89;40.45;48.07;;
69670;Laerm;66535;52.370;4.832;2024-02-28T00:10:36;42.00;39.45;53.44;;
69670;Laerm;66535;52.370;4.832;2024-02-28T00:11:08;42.58;40.08;45.28;;
69670;Laerm;66535;52.370;4.832;2024-02-28T00:11:42;44.02;39.94;51.16;;
69670;Laerm;66535;52.370;4.832;2024-02-28T00:12:14;42.57;38.59;49.75;;
69670;Laerm;66535;52.370;4.832;2024-02-28T00:12:46;41.38;38.94;45.19;;
69670;Laerm;66535;52.370;4.832;2024-02-28T00:13:17;41.75;38.94;46.33;;
69670;Laerm;66535;52.370;4.832;2024-02-28T00:13:48;41.81;39.18;49.88;;
69670;Laerm;66535;52.370;4.832;2024-02-28T00:14:21;46.74;39.79;55.92;;
69670;Laerm;66535;52.370;4.832;2024-02-28T00:14:52;41.23;38.02;46.14;;
69670;Laerm;66535;52.370;4.832;2024-02-28T00:15:23;41.21;37.25;47.46;;
69670;Laerm;66535;52.370;4.832;2024-02-28T00:15:54;39.00;36.00;41.90;;
69670;Laerm;66535;52.370;4.832;2024-02-28T00:16:27;41.41;38.78;45.52;;
69670;Laerm;66535;52.370;4.832;2024-02-28T00:16:58;42.64;38.82;49.82;;
69670;Laerm;66535;52.370;4.832;2024-02-28T00:17:30;44.85;39.74;59.14;;
69670;Laerm;66535;52.370;4.832;2024-02-28T00:18:02;45.62;39.63;52.43;;
69670;Laerm;66535;52.370;4.832;2024-02-28T00:18:34;41.29;37.99;46.42;;
69670;Laerm;66535;52.370;4.832;2024-02-28T00:19:05;41.70;38.05;47.19;;
69670;Laerm;66535;52.370;4.832;2024-02-28T00:19:36;40.06;37.63;43.73;;
69670;Laerm;66535;52.370;4.832;2024-02-28T00:20:08;42.32;38.48;47.54;;
69670;Laerm;66535;52.370;4.832;2024-02-28T00:20:41;47.57;38.17;60.22;;
69670;Laerm;66535;52.370;4.832;2024-02-28T00:21:12;46.69;38.57;57.07;;
69670;Laerm;66535;52.370;4.832;2024-02-28T00:21:43;43.31;38.98;49.86;;
69670;Laerm;66535;52.370;4.832;2024-02-28T00:22:14;40.37;38.01;44.80;;
69670;Laerm;66535;52.370;4.832;2024-02-28T00:22:47;41.54;38.05;52.35;;
69670;Laerm;66535;52.370;4.832;2024-02-28T00:23:18;40.10;37.68;48.89;;
69670;Laerm;66535;52.370;4.832;2024-02-28T00:23:49;42.63;39.20;53.56;;
69670;Laerm;66535;52.370;4.832;2024-02-28T00:24:20;42.91;38.59;48.85;;
69670;Laerm;66535;52.370;4.832;2024-02-28T00:24:51;40.20;37.61;43.46;;
69670;Laerm;66535;52.370;4.832;2024-02-28T00:25:24;39.33;36.69;41.78;;
69670;Laerm;66535;52.370;4.832;2024-02-28T00:25:55;41.79;37.40;47.79;;
69670;Laerm;66535;52.370;4.832;2024-02-28T00:26:27;40.74;37.43;46.62;;
69670;Laerm;66535;52.370;4.832;2024-02-28T00:26:58;42.46;38.15;49.73;;
69670;Laerm;66535;52.370;4.832;2024-02-28T00:27:32;42.17;38.08;47.37;;
69670;Laerm;66535;52.370;4.832;2024-02-28T00:28:03;43.24;37.44;52.25;;
69670;Laerm;66535;52.370;4.832;2024-02-28T00:28:34;39.01;35.99;42.39;;
69670;Laerm;66535;52.370;4.832;2024-02-28T00:29:07;39.53;36.60;43.76;;
69670;Laerm;66535;52.370;4.832;2024-02-28T00:29:38;44.91;38.92;58.30;;
69670;Laerm;66535;52.370;4.832;2024-02-28T00:30:10;44.01;37.74;52.86;;
69670;Laerm;66535;52.370;4.832;2024-02-28T00:30:41;40.83;37.51;47.15;;
69670;Laerm;66535;52.370;4.832;2024-02-28T00:31:13;40.35;37.31;45.55;;
69670;Laerm;66535;52.370;4.832;2024-02-28T00:31:45;43.50;38.94;52.46;;
69670;Laerm;66535;52.370;4.832;2024-02-28T00:32:16;41.50;38.00;47.40;;
69670;Laerm;66535;52.370;4.832;2024-02-28T00:32:48;41.11;36.22;50.67;;
69670;Laerm;66535;52.370;4.832;2024-02-28T00:33:21;39.16;35.93;41.99;;
69670;Laerm;66535;52.370;4.832;2024-02-28T00:33:52;40.29;37.51;47.18;;
69670;Laerm;66535;52.370;4.832;2024-02-28T00:34:23;39.56;36.14;43.70;;
69670;Laerm;66535;52.370;4.832;2024-02-28T00:34:54;40.47;36.27;47.47;;
69670;Laerm;66535;52.370;4.832;2024-02-28T00:35:27;39.96;37.45;46.18;;
69670;Laerm;66535;52.370;4.832;2024-02-28T00:35:59;41.16;36.83;47.10;;
69670;Laerm;66535;52.370;4.832;2024-02-28T00:36:30;42.70;37.24;53.43;;
69670;Laerm;66535;52.370;4.832;2024-02-28T00:37:01;38.09;36.05;40.41;;
69670;Laerm;66535;52.370;4.832;2024-02-28T00:37:33;42.27;36.08;56.49;;
69670;Laerm;66535;52.370;4.832;2024-02-28T00:38:05;38.57;36.18;41.22;;
69670;Laerm;66535;52.370;4.832;2024-02-28T00:38:36;39.61;36.76;44.74;;
69670;Laerm;66535;52.370;4.832;2024-02-28T00:39:08;40.59;37.22;46.78;;
69670;Laerm;66535;52.370;4.832;2024-02-28T00:39:39;40.60;38.04;43.61;;
69670;Laerm;66535;52.370;4.832;2024-02-28T00:40:11;39.22;37.11;42.38;;
69670;Laerm;66535;52.370;4.832;2024-02-28T00:40:43;38.91;36.32;43.25;;
69670;Laerm;66535;52.370;4.832;2024-02-28T00:41:15;39.63;37.25;43.20;;
69670;Laerm;66535;52.370;4.832;2024-02-28T00:41:46;45.36;37.54;56.87;;
69670;Laerm;66535;52.370;4.832;2024-02-28T00:42:17;39.94;36.84;52.36;;
69670;Laerm;66535;52.370;4.832;2024-02-28T00:42:49;41.44;38.31;44.77;;
69670;Laerm;66535;52.370;4.832;2024-02-28T00:43:21;44.20;38.23;51.06;;
69670;Laerm;66535;52.370;4.832;2024-02-28T00:43:52;41.37;36.36;55.62;;
69670;Laerm;66535;52.370;4.832;2024-02-28T00:44:23;47.50;36.77;64.59;;
69670;Laerm;66535;52.370;4.832;2024-02-28T00:44:54;40.88;36.63;52.60;;
69670;Laerm;66535;52.370;4.832;2024-02-28T00:45:27;38.28;34.91;49.40;;
69670;Laerm;66535;52.370;4.832;2024-02-28T00:45:58;37.31;34.84;40.82;;
69670;Laerm;66535;52.370;4.832;2024-02-28T00:46:29;37.84;35.40;45.22;;
69670;Laerm;66535;52.370;4.832;2024-02-28T00:47:00;37.90;35.38;45.62;;
69670;Laerm;66535;52.370;4.832;2024-02-28T00:47:33;40.12;37.60;44.12;;
69670;Laerm;66535;52.370;4.832;2024-02-28T00:48:06;44.10;38.01;59.89;;
69670;Laerm;66535;52.370;4.832;2024-02-28T00:48:37;39.10;36.08;45.22;;
69670;Laerm;66535;52.370;4.832;2024-02-28T00:49:10;38.63;35.88;43.71;;
69670;Laerm;66535;52.370;4.832;2024-02-28T00:49:41;38.56;35.53;43.63;;
69670;Laerm;66535;52.370;4.832;2024-02-28T00:50:13;37.51;35.65;39.97;;
69670;Laerm;66535;52.370;4.832;2024-02-28T00:50:45;38.87;36.11;44.76;;
69670;Laerm;66535;52.370;4.832;2024-02-28T00:51:17;40.98;36.50;47.05;;
69670;Laerm;66535;52.370;4.832;2024-02-28T00:51:48;39.13;36.24;42.79;;
69670;Laerm;66535;52.370;4.832;2024-02-28T00:52:19;38.28;36.08;40.86;;
69670;Laerm;66535;52.370;4.832;2024-02-28T00:52:50;44.87;37.04;55.89;;
69670;Laerm;66535;52.370;4.832;2024-02-28T00:53:23;40.36;37.06;44.24;;
69670;Laerm;66535;52.370;4.832;2024-02-28T00:53:54;41.43;37.23;48.15;;
69670;Laerm;66535;52.370;4.832;2024-02-28T00:54:25;42.19;37.61;47.39;;
69670;Laerm;66535;52.370;4.832;2024-02-28T00:54:57;40.65;38.25;45.85;;
69670;Laerm;66535;52.370;4.832;2024-02-28T00:55:29;42.03;38.00;48.63;;
69670;Laerm;66535;52.370;4.832;2024-02-28T00:56:00;41.95;37.86;50.34;;
69670;Laerm;66535;52.370;4.832;2024-02-28T00:56:31;40.28;37.70;45.90;;
69670;Laerm;66535;52.370;4.832;2024-02-28T00:57:03;40.92;37.13;49.29;;
69670;Laerm;66535;52.370;4.832;2024-02-28T00:57:34;41.02;37.90;47.44;;
69670;Laerm;66535;52.370;4.832;2024-02-28T00:58:06;40.88;38.40;44.55;;
69670;Laerm;66535;52.370;4.832;2024-02-28T00:58:38;41.36;37.23;47.42;;
69670;Laerm;66535;52.370;4.832;2024-02-28T00:59:09;41.31;37.07;49.73;;
69670;Laerm;66535;52.370;4.832;2024-02-28T00:59:42;41.71;38.15;45.36;;
69670;Laerm;66535;52.370;4.832;2024-02-28T01:00:16;44.64;38.46;54.16;;
69670;Laerm;66535;52.370;4.832;2024-02-28T01:00:47;40.32;36.35;46.28;;
69670;Laerm;66535;52.370;4.832;2024-02-28T01:01:19;37.49;35.52;42.00;;
69670;Laerm;66535;52.370;4.832;2024-02-28T01:01:50;38.27;35.35;44.38;;
69670;Laerm;66535;52.370;4.832;2024-02-28T01:02:21;41.04;38.20;44.90;;
69670;Laerm;66535;52.370;4.832;2024-02-28T01:02:53;40.21;36.83;48.57;;
69670;Laerm;66535;52.370;4.832;2024-02-28T01:03:26;39.61;36.94;45.07;;
69670;Laerm;66535;52.370;4.832;2024-02-28T01:03:57;41.65;37.70;49.09;;
69670;Laerm;66535;52.370;4.832;2024-02-28T01:04:29;40.48;37.31;46.94;;
69670;Laerm;66535;52.370;4.832;2024-02-28T01:05:01;38.49;36.55;40.55;;
69670;Laerm;66535;52.370;4.832;2024-02-28T01:05:32;37.07;34.53;39.31;;
69670;Laerm;66535;52.370;4.832;2024-02-28T01:06:04;38.04;34.84;41.46;;
69670;Laerm;66535;52.370;4.832;2024-02-28T01:06:37;39.94;36.37;44.90;;
69670;Laerm;66535;52.370;4.832;2024-02-28T01:07:09;40.06;37.40;42.62;;
69670;Laerm;66535;52.370;4.832;2024-02-28T01:07:40;39.04;36.02;41.91;;
69670;Laerm;66535;52.370;4.832;2024-02-28T01:08:12;38.39;35.87;42.12;;
69670;Laerm;66535;52.370;4.832;2024-02-28T01:08:44;40.83;37.94;45.27;;
69670;Laerm;66535;52.370;4.832;2024-02-28T01:09:15;40.61;37.94;43.41;;
69670;Laerm;66535;52.370;4.832;2024-02-28T01:09:47;40.00;36.64;43.77;;
69670;Laerm;66535;52.370;4.832;2024-02-28T01:10:19;40.90;36.52;52.95;;
69670;Laerm;66535;52.370;4.832;2024-02-28T01:10:50;41.22;36.57;48.02;;
69670;Laerm;66535;52.370;4.832;2024-02-28T01:11:21;39.27;35.72;43.43;;
69670;Laerm;66535;52.370;4.832;2024-02-28T01:11:52;37.70;35.55;40.72;;
69670;Laerm;66535;52.370;4.832;2024-02-28T01:12:25;38.26;35.98;40.60;;
69670;Laerm;66535;52.370;4.832;2024-02-28T01:12:56;41.20;33.94;48.70;;
69670;Laerm;66535;52.370;4.832;2024-02-28T01:13:27;38.56;34.56;54.54;;
69670;Laerm;66535;52.370;4.832;2024-02-28T01:13:58;38.58;35.62;43.68;;
69670;Laerm;66535;52.370;4.832;2024-02-28T01:14:30;38.69;35.81;41.85;;
69670;Laerm;66535;52.370;4.832;2024-02-28T01:15:02;39.83;36.36;45.04;;
69670;Laerm;66535;52.370;4.832;2024-02-28T01:15:34;39.82;37.05;46.76;;
69670;Laerm;66535;52.370;4.832;2024-02-28T01:16:05;40.40;37.73;43.83;;
69670;Laerm;66535;52.370;4.832;2024-02-28T01:16:37;39.16;36.63;41.59;;
69670;Laerm;66535;52.370;4.832;2024-02-28T01:17:09;38.28;34.65;41.32;;
69670;Laerm;66535;52.370;4.832;2024-02-28T01:17:40;38.91;36.15;44.02;;
69670;Laerm;66535;52.370;4.832;2024-02-28T01:18:11;38.98;36.48;44.83;;
69670;Laerm;66535;52.370;4.832;2024-02-28T01:18:44;39.49;36.39;44.46;;
69670;Laerm;66535;52.370;4.832;2024-02-28T01:19:16;38.62;36.08;45.88;;
69670;Laerm;66535;52.370;4.832;2024-02-28T01:19:47;38.72;36.57;41.13;;
69670;Laerm;66535;52.370;4.832;2024-02-28T01:20:18;38.72;35.90;41.63;;
69670;Laerm;66535;52.370;4.832;2024-02-28T01:20:50;37.71;35.79;40.60;;
69670;Laerm;66535;52.370;4.832;2024-02-28T01:21:24;40.07;37.69;43.39;;
69670;Laerm;66535;52.370;4.832;2024-02-28T01:21:55;46.01;38.20;57.21;;
69670;Laerm;66535;52.370;4.832;2024-02-28T01:22:26;40.37;36.81;45.57;;
69670;Laerm;66535;52.370;4.832;2024-02-28T01:22:59;41.13;37.16;46.02;;
69670;Laerm;66535;52.370;4.832;2024-02-28T01:23:31;40.57;37.06;45.89;;
69670;Laerm;66535;52.370;4.832;2024-02-28T01:24:03;38.14;34.59;41.84;;
69670;Laerm;66535;52.370;4.832;2024-02-28T01:24:34;37.91;35.42;40.99;;
69670;Laerm;66535;52.370;4.832;2024-02-28T01:25:05;38.70;35.97;43.34;;
69670;Laerm;66535;52.370;4.832;2024-02-28T01:25:38;38.95;35.90;43.61;;
69670;Laerm;66535;52.370;4.832;2024-02-28T01:26:09;41.33;37.97;45.43;;
69670;Laerm;66535;52.370;4.832;2024-02-28T01:26:40;39.66;36.70;43.83;;
69670;Laerm;66535;52.370;4.832;2024-02-28T01:27:12;38.80;35.96;45.07;;
69670;Laerm;66535;52.370;4.832;2024-02-28T01:27:43;38.81;36.07;41.67;;
69670;Laerm;66535;52.370;4.832;2024-02-28T01:28:15;38.93;36.22;42.66;;
69670;Laerm;66535;52.370;4.832;2024-02-28T01:28:47;42.96;38.07;49.70;;
69670;Laerm;66535;52.370;4.832;2024-02-28T01:29:18;41.60;37.77;48.84;;
69670;Laerm;66535;52.370;4.832;2024-02-28T01:29:49;39.17;36.91;46.14;;
69670;Laerm;66535;52.370;4.832;2024-02-28T01:30:21;39.87;36.46;47.20;;
69670;Laerm;66535;52.370;4.832;2024-02-28T01:30:52;38.11;35.37;41.81;;
69670;Laerm;66535;52.370;4.832;2024-02-28T01:31:24;37.11;34.82;41.43;;
69670;Laerm;66535;52.370;4.832;2024-02-28T01:31:55;37.36;35.24;39.66;;
69670;Laerm;66535;52.370;4.832;2024-02-28T01:32:28;37.59;35.58;41.36;;
69670;Laerm;66535;52.370;4.832;2024-02-28T01:33:00;38.62;36.08;42.73;;
69670;Laerm;66535;52.370;4.832;2024-02-28T01:33:32;40.86;37.18;48.65;;
69670;Laerm;66535;52.370;4.832;2024-02-28T01:34:05;38.92;36.50;43.27;;
69670;Laerm;66535;52.370;4.832;2024-02-28T01:34:37;40.96;37.17;45.37;;
69670;Laerm;66535;52.370;4.832;2024-02-28T01:35:09;44.46;37.57;50.85;;
69670;Laerm;66535;52.370;4.832;2024-02-28T01:35:40;40.20;36.54;49.07;;
69670;Laerm;66535;52.370;4.832;2024-02-28T01:36:11;38.72;35.23;47.14;;
69670;Laerm;66535;52.370;4.832;2024-02-28T01:36:44;38.63;35.18;45.17;;
69670;Laerm;66535;52.370;4.832;2024-02-28T01:37:15;38.49;35.00;45.14;;
69670;Laerm;66535;52.370;4.832;2024-02-28T01:37:46;39.96;36.68;45.71;;
69670;Laerm;66535;52.370;4.832;2024-02-28T01:38:17;38.88;35.93;44.52;;
69670;Laerm;66535;52.370;4.832;2024-02-28T01:38:49;39.01;35.79;45.53;;
69670;Laerm;66535;52.370;4.832;2024-02-28T01:39:22;40.00;36.51;47.16;;
69670;Laerm;66535;52.370;4.832;2024-02-28T01:39:54;39.06;36.36;42.71;;
69670;Laerm;66535;52.370;4.832;2024-02-28T01:40:25;43.67;35.35;57.29;;
69670;Laerm;66535;52.370;4.832;2024-02-28T01:40:57;42.36;37.45;54.18;;
69670;Laerm;66535;52.370;4.832;2024-02-28T01:41:28;39.55;36.47;44.70;;
69670;Laerm;66535;52.370;4.832;2024-02-28T01:41:59;40.34;36.00;46.01;;
69670;Laerm;66535;52.370;4.832;2024-02-28T01:42:31;38.40;36.51;40.89;;
69670;Laerm;66535;52.370;4.832;2024-02-28T01:43:03;39.19;36.24;46.11;;
69670;Laerm;66535;52.370;4.832;2024-02-28T01:43:34;40.91;36.07;46.59;;
69670;Laerm;66535;52.370;4.832;2024-02-28T01:44:06;38.40;36.03;43.60;;
69670;Laerm;66535;52.370;4.832;2024-02-28T01:44:39;38.50;35.11;42.29;;
69670;Laerm;66535;52.370;4.832;2024-02-28T01:45:14;37.75;35.16;41.86;;
69670;Laerm;66535;52.370;4.832;2024-02-28T01:45:45;37.08;35.12;40.10;;
69670;Laerm;66535;52.370;4.832;2024-02-28T01:46:20;38.82;35.36;46.27;;
69670;Laerm;66535;52.370;4.832;2024-02-28T01:46:53;40.28;36.32;44.19;;
69670;Laerm;66535;52.370;4.832;2024-02-28T01:47:27;41.31;36.53;49.54;;
69670;Laerm;66535;52.370;4.832;2024-02-28T01:47:58;39.23;36.65;41.56;;
69670;Laerm;66535;52.370;4.832;2024-02-28T01:48:30;40.64;36.37;45.91;;
69670;Laerm;66535;52.370;4.832;2024-02-28T01:49:02;43.01;36.17;49.66;;
69670;Laerm;66535;52.370;4.832;2024-02-28T01:49:36;39.78;36.70;51.65;;
69670;Laerm;66535;52.370;4.832;2024-02-28T01:50:08;38.46;35.88;42.19;;
69670;Laerm;66535;52.370;4.832;2024-02-28T01:50:40;36.72;34.78;39.24;;
69670;Laerm;66535;52.370;4.832;2024-02-28T01:51:12;39.61;35.15;44.59;;
69670;Laerm;66535;52.370;4.832;2024-02-28T01:51:45;38.65;35.85;45.86;;
69670;Laerm;66535;52.370;4.832;2024-02-28T01:52:17;38.39;35.61;41.56;;
69670;Laerm;66535;52.370;4.832;2024-02-28T01:52:49;38.36;35.59;42.78;;
69670;Laerm;66535;52.370;4.832;2024-02-28T01:53:20;41.07;36.92;48.03;;
69670;Laerm;66535;52.370;4.832;2024-02-28T01:53:53;40.05;36.60;44.01;;
69670;Laerm;66535;52.370;4.832;2024-02-28T01:54:24;39.51;36.00;43.31;;
69670;Laerm;66535;52.370;4.832;2024-02-28T01:54:58;41.83;36.42;51.18;;
69670;Laerm;66535;52.370;4.832;2024-02-28T01:55:29;40.46;36.93;46.02;;
69670;Laerm;66535;52.370;4.832;2024-02-28T01:56:02;39.94;37.36;43.62;;
69670;Laerm;66535;52.370;4.832;2024-02-28T01:56:33;39.29;36.80;42.65;;
69670;Laerm;66535;52.370;4.832;2024-02-28T01:57:05;38.49;34.94;44.01;;
69670;Laerm;66535;52.370;4.832;2024-02-28T01:57:37;41.15;36.58;47.74;;
69670;Laerm;66535;52.370;4.832;2024-02-28T01:58:10;38.39;36.10;44.42;;
69670;Laerm;66535;52.370;4.832;2024-02-28T01:58:41;39.63;36.98;45.21;;
69670;Laerm;66535;52.370;4.832;2024-02-28T01:59:13;39.24;36.58;44.23;;
69670;Laerm;66535;52.370;4.832;2024-02-28T01:59:44;38.40;36.32;40.87;;
69670;Laerm;66535;52.370;4.832;2024-02-28T02:00:17;39.97;36.24;47.25;;
69670;Laerm;66535;52.370;4.832;2024-02-28T02:00:49;40.31;35.67;51.02;;
69670;Laerm;66535;52.370;4.832;2024-02-28T02:01:21;39.48;35.58;48.72;;
69670;Laerm;66535;52.370;4.832;2024-02-28T02:01:52;39.54;36.13;45.57;;
69670;Laerm;66535;52.370;4.832;2024-02-28T02:02:26;39.13;36.74;43.08;;
69670;Laerm;66535;52.370;4.832;2024-02-28T02:02:57;37.71;35.77;40.28;;
69670;Laerm;66535;52.370;4.832;2024-02-28T02:03:28;37.52;35.65;40.12;;
69670;Laerm;66535;52.370;4.832;2024-02-28T02:03:59;38.86;35.66;44.58;;
69670;Laerm;66535;52.370;4.832;2024-02-28T02:04:31;37.38;35.52;40.13;;
69670;Laerm;66535;52.370;4.832;2024-02-28T02:05:05;41.93;35.41;51.00;;
69670;Laerm;66535;52.370;4.832;2024-02-28T02:05:36;37.36;35.22;46.29;;
69670;Laerm;66535;52.370;4.832;2024-02-28T02:06:08;37.78;35.34;46.09;;
69670;Laerm;66535;52.370;4.832;2024-02-28T02:06:41;37.80;35.31;40.67;;
69670;Laerm;66535;52.370;4.832;2024-02-28T02:07:14;38.58;36.17;40.92;;
69670;Laerm;66535;52.370;4.832;2024-02-28T02:07:45;38.45;36.10;42.67;;
69670;Laerm;66535;52.370;4.832;2024-02-28T02:08:17;37.67;35.61;41.35;;
69670;Laerm;66535;52.370;4.832;2024-02-28T02:08:48;40.30;35.25;65.32;;
69670;Laerm;66535;52.370;4.832;2024-02-28T02:09:21;40.70;36.21;48.73;;
69670;Laerm;66535;52.370;4.832;2024-02-28T02:09:52;39.02;36.72;43.00;;
69670;Laerm;66535;52.370;4.832;2024-02-28T02:10:23;40.83;37.69;44.98;;
69670;Laerm;66535;52.370;4.832;2024-02-28T02:10:55;43.58;36.71;52.37;;
69670;Laerm;66535;52.370;4.832;2024-02-28T02:11:27;40.12;35.97;46.70;;
69670;Laerm;66535;52.370;4.832;2024-02-28T02:12:00;41.98;38.56;46.66;;
69670;Laerm;66535;52.370;4.832;2024-02-28T02:12:31;39.23;36.40;42.14;;
69670;Laerm;66535;52.370;4.832;2024-02-28T02:13:04;37.54;35.32;40.74;;
69670;Laerm;66535;52.370;4.832;2024-02-28T02:13:35;37.93;34.16;41.19;;
69670;Laerm;66535;52.370;4.832;2024-02-28T02:14:07;37.28;34.53;46.18;;
69670;Laerm;66535;52.370;4.832;2024-02-28T02:14:39;36.60;34.53;39.55;;
69670;Laerm;66535;52.370;4.832;2024-02-28T02:15:10;36.37;34.09;38.36;;
69670;Laerm;66535;52.370;4.832;2024-02-28T02:15:42;37.59;35.50;41.93;;
69670;Laerm;66535;52.370;4.832;2024-02-28T02:16:13;39.29;35.22;44.40;;
69670;Laerm;66535;52.370;4.832;2024-02-28T02:16:45;42.47;37.91;48.00;;
69670;Laerm;66535;52.370;4.832;2024-02-28T02:17:16;37.49;35.36;40.91;;
69670;Laerm;66535;52.370;4.832;2024-02-28T02:17:47;37.79;35.43;44.71;;
69670;Laerm;66535;52.370;4.832;2024-02-28T02:18:19;39.38;36.69;43.67;;
69670;Laerm;66535;52.370;4.832;2024-02-28T02:18:51;39.08;36.06;44.99;;
69670;Laerm;66535;52.370;4.832;2024-02-28T02:19:22;41.07;36.22;54.90;;
69670;Laerm;66535;52.370;4.832;2024-02-28T02:19:53;38.02;35.11;41.55;;
69670;Laerm;66535;52.370;4.832;2024-02-28T02:20:27;45.54;36.27;57.52;;
69670;Laerm;66535;52.370;4.832;2024-02-28T02:21:02;37.72;35.23;42.12;;
69670;Laerm;66535;52.370;4.832;2024-02-28T02:21:40;37.25;34.75;40.34;;
69670;Laerm;66535;52.370;4.832;2024-02-28T02:22:13;44.45;39.14;56.36;;
69670;Laerm;66535;52.370;4.832;2024-02-28T02:22:46;38.84;35.22;43.98;;
69670;Laerm;66535;52.370;4.832;2024-02-28T02:23:17;37.69;34.95;40.56;;
69670;Laerm;66535;52.370;4.832;2024-02-28T02:23:50;36.73;34.68;41.88;;
69670;Laerm;66535;52.370;4.832;2024-02-28T02:24:22;38.54;34.86;42.49;;
69670;Laerm;66535;52.370;4.832;2024-02-28T02:24:53;40.30;37.10;45.82;;
69670;Laerm;66535;52.370;4.832;2024-02-28T02:25:26;41.17;36.43;48.81;;
69670;Laerm;66535;52.370;4.832;2024-02-28T02:25:57;38.55;35.73;42.56;;
69670;Laerm;66535;52.370;4.832;2024-02-28T02:26:28;37.48;35.23;39.34;;
69670;Laerm;66535;52.370;4.832;2024-02-28T02:27:02;37.21;34.96;40.26;;
69670;Laerm;66535;52.370;4.832;2024-02-28T02:27:35;37.97;35.54;40.33;;
69670;Laerm;66535;52.370;4.832;2024-02-28T02:28:06;38.72;36.47;42.54;;
69670;Laerm;66535;52.370;4.832;2024-02-28T02:28:38;38.11;35.65;40.85;;
69670;Laerm;66535;52.370;4.832;2024-02-28T02:29:10;39.29;36.59;45.24;;
69670;Laerm;66535;52.370;4.832;2024-02-28T02:29:41;39.00;36.41;42.76;;
69670;Laerm;66535;52.370;4.832;2024-02-28T02:30:12;38.87;36.76;41.52;;
69670;Laerm;66535;52.370;4.832;2024-02-28T02:30:44;39.73;36.24;44.50;;
69670;Laerm;66535;52.370;4.832;2024-02-28T02:31:18;38.61;35.67;42.25;;
69670;Laerm;66535;52.370;4.832;2024-02-28T02:31:49;37.48;35.38;39.24;;
69670;Laerm;66535;52.370;4.832;2024-02-28T02:32:20;37.95;35.56;41.81;;
69670;Laerm;66535;52.370;4.832;2024-02-28T02:32:52;39.76;36.29;60.05;;
69670;Laerm;66535;52.370;4.832;2024-02-28T02:33:24;40.04;37.22;43.20;;
69670;Laerm;66535;52.370;4.832;2024-02-28T02:33:55;39.47;35.68;44.41;;
69670;Laerm;66535;52.370;4.832;2024-02-28T02:34:26;37.34;35.41;39.31;;
69670;Laerm;66535;52.370;4.832;2024-02-28T02:34:58;37.84;35.88;39.60;;
69670;Laerm;66535;52.370;4.832;2024-02-28T02:35:30;38.49;35.48;44.94;;
69670;Laerm;66535;52.370;4.832;2024-02-28T02:36:01;38.70;36.28;41.26;;
69670;Laerm;66535;52.370;4.832;2024-02-28T02:36:32;42.06;37.94;48.27;;
69670;Laerm;66535;52.370;4.832;2024-02-28T02:37:04;40.33;36.66;43.65;;
69670;Laerm;66535;52.370;4.832;2024-02-28T02:37:43;39.51;36.27;45.75;;
69670;Laerm;66535;52.370;4.832;2024-02-28T02:38:16;43.33;37.52;52.23;;
69670;Laerm;66535;52.370;4.832;2024-02-28T02:38:48;39.08;36.18;43.17;;
69670;Laerm;66535;52.370;4.832;2024-02-28T02:39:19;39.00;35.84;50.65;;
69670;Laerm;66535;52.370;4.832;2024-02-28T02:39:51;38.59;36.10;42.66;;
69670;Laerm;66535;52.370;4.832;2024-02-28T02:40:23;38.79;35.78;43.37;;
69670;Laerm;66535;52.370;4.832;2024-02-28T02:40:54;40.49;36.21;49.66;;
69670;Laerm;66535;52.370;4.832;2024-02-28T02:41:26;38.73;36.22;41.25;;
69670;Laerm;66535;52.370;4.832;2024-02-28T02:41:57;43.67;36.86;51.79;;
69670;Laerm;66535;52.370;4.832;2024-02-28T02:42:28;39.62;36.43;44.63;;
69670;Laerm;66535;52.370;4.832;2024-02-28T02:43:00;37.70;35.62;40.04;;
69670;Laerm;66535;52.370;4.832;2024-02-28T02:43:31;38.29;35.47;43.78;;
69670;Laerm;66535;52.370;4.832;2024-02-28T02:44:03;37.22;35.03;45.20;;
69670;Laerm;66535;52.370;4.832;2024-02-28T02:44:34;40.26;35.64;49.44;;
69670;Laerm;66535;52.370;4.832;2024-02-28T02:45:08;38.13;34.43;43.28;;
69670;Laerm;66535;52.370;4.832;2024-02-28T02:45:39;36.24;34.11;38.92;;
69670;Laerm;66535;52.370;4.832;2024-02-28T02:46:10;37.14;34.46;39.68;;
69670;Laerm;66535;52.370;4.832;2024-02-28T02:46:43;38.26;36.26;40.31;;
69670;Laerm;66535;52.370;4.832;2024-02-28T02:47:14;36.99;34.67;42.63;;
69670;Laerm;66535;52.370;4.832;2024-02-28T02:47:45;36.94;35.09;41.85;;
69670;Laerm;66535;52.370;4.832;2024-02-28T02:48:17;40.58;35.04;48.64;;
69670;Laerm;66535;52.370;4.832;2024-02-28T02:48:49;37.91;34.33;42.44;;
69670;Laerm;66535;52.370;4.832;2024-02-28T02:49:20;40.43;36.42;45.83;;
69670;Laerm;66535;52.370;4.832;2024-02-28T02:49:52;39.58;35.86;45.22;;
69670;Laerm;66535;52.370;4.832;2024-02-28T02:50:23;38.57;35.70;44.06;;
69670;Laerm;66535;52.370;4.832;2024-02-28T02:50:55;37.78;35.28;43.95;;
69670;Laerm;66535;52.370;4.832;2024-02-28T02:51:27;36.83;34.31;38.79;;
69670;Laerm;66535;52.370;4.832;2024-02-28T02:51:58;36.28;34.03;38.28;;
69670;Laerm;66535;52.370;4.832;2024-02-28T02:52:29;37.71;35.61;39.49;;
69670;Laerm;66535;52.370;4.832;2024-02-28T02:53:02;41.26;36.72;49.06;;
69670;Laerm;66535;52.370;4.832;2024-02-28T02:53:35;39.39;36.82;44.60;;
69670;Laerm;66535;52.370;4.832;2024-02-28T02:54:06;37.85;35.17;42.10;;
69670;Laerm;66535;52.370;4.832;2024-02-28T02:54:37;36.78;34.34;42.41;;
69670;Laerm;66535;52.370;4.832;2024-02-28T02:55:09;38.74;34.17;53.18;;
69670;Laerm;66535;52.370;4.832;2024-02-28T02:55:41;39.58;34.48;50.33;;
69670;Laerm;66535;52.370;4.832;2024-02-28T02:56:12;40.55;36.65;45.05;;
69670;Laerm;66535;52.370;4.832;2024-02-28T02:56:43;38.05;34.41;42.65;;
69670;Laerm;66535;52.370;4.832;2024-02-28T02:57:15;37.71;35.06;41.25;;
69670;Laerm;66535;52.370;4.832;2024-02-28T02:57:46;36.47;34.46;38.37;;